createdAt,value
2019-01-21T00:00:33.127Z,17.10
2019-01-21T00:03:02.037Z,16.43
2019-01-21T00:05:30.454Z,17.57
2019-01-21T00:07:58.853Z,19.23
2019-01-21T00:10:27.277Z,18.37
2019-01-21T00:12:55.671Z,19.63
2019-01-21T00:15:24.783Z,17.37
2019-01-21T00:17:53.200Z,19.67
2019-01-21T00:20:21.605Z,18.10
2019-01-21T00:22:50.016Z,18.50
2019-01-21T00:25:18.428Z,18.90
2019-01-21T00:27:46.832Z,17.80
2019-01-21T00:30:15.232Z,17.77
2019-01-21T00:32:43.652Z,17.20
2019-01-21T00:35:12.052Z,16.50
2019-01-21T00:37:40.473Z,17.50
2019-01-21T00:40:16.883Z,17.40
2019-01-21T00:42:45.541Z,18.80
2019-01-21T00:45:14.381Z,19.50
2019-01-21T00:47:42.935Z,19.80
2019-01-21T00:50:13.274Z,17.60
2019-01-21T00:52:41.811Z,19.87
2019-01-21T00:55:10.957Z,16.73
2019-01-21T00:57:39.369Z,17.80
2019-01-21T01:00:19.484Z,17.67
2019-01-21T01:02:48.037Z,15.97
2019-01-21T01:05:16.807Z,16.57
2019-01-21T01:07:45.280Z,17.77
2019-01-21T01:10:14.020Z,17.43
2019-01-21T01:12:42.431Z,15.47
2019-01-21T01:15:13.172Z,16.70
2019-01-21T01:17:41.584Z,17.50
2019-01-21T01:20:12.824Z,16.83
2019-01-21T01:22:41.238Z,15.47
2019-01-21T01:25:10.193Z,17.93
2019-01-21T01:27:38.600Z,16.40
2019-01-21T01:30:08.467Z,17.97
2019-01-21T01:32:36.948Z,16.63
2019-01-21T01:35:07.392Z,17.37
2019-01-21T01:37:35.800Z,17.07
2019-01-21T01:40:07.421Z,16.67
2019-01-21T01:42:35.832Z,16.37
2019-01-21T01:45:07.278Z,16.83
2019-01-21T01:47:35.767Z,18.00
2019-01-21T01:50:07.088Z,16.03
2019-01-21T01:52:35.544Z,18.20
2019-01-21T01:55:07.284Z,16.00
2019-01-21T01:57:35.696Z,17.60
2019-01-21T02:00:10.004Z,16.93
2019-01-21T02:02:38.489Z,17.30
2019-01-21T02:05:07.036Z,17.03
2019-01-21T02:07:35.448Z,18.07
2019-01-21T02:10:06.984Z,16.83
2019-01-21T02:12:35.767Z,18.37
2019-01-21T02:15:07.356Z,18.20
2019-01-21T02:17:35.773Z,19.60
2019-01-21T02:20:07.184Z,20.37
2019-01-21T02:22:36.534Z,19.13
2019-01-21T02:25:06.393Z,19.50
2019-01-21T02:27:37.876Z,21.53
2019-01-21T02:30:18.077Z,19.63
2019-01-21T02:33:15.077Z,18.00
2019-01-21T02:35:46.556Z,19.43
2019-01-21T02:38:20.581Z,20.43
2019-01-21T02:40:57.356Z,18.07
2019-01-21T02:43:46.345Z,18.13
2019-01-21T02:46:20.505Z,17.37
2019-01-21T02:49:11.366Z,18.33
2019-01-21T02:52:01.001Z,19.90
2019-01-21T02:54:47.348Z,18.90
2019-01-21T02:57:24.759Z,17.97
2019-01-21T03:00:12.197Z,16.93
2019-01-21T03:02:52.161Z,18.63
2019-01-21T03:05:38.660Z,18.20
2019-01-21T03:08:13.065Z,18.83
2019-01-21T03:10:50.513Z,20.03
2019-01-21T03:13:27.770Z,21.03
2019-01-21T03:15:59.245Z,19.17
2019-01-21T03:18:48.500Z,20.00
2019-01-21T03:21:24.032Z,19.10
2019-01-21T03:24:13.844Z,22.07
2019-01-21T03:26:51.390Z,18.90
2019-01-21T03:29:28.390Z,19.10
2019-01-21T03:32:16.526Z,18.80
2019-01-21T03:35:02.729Z,20.40
2019-01-21T03:37:35.311Z,18.40
2019-01-21T03:40:17.104Z,21.00
2019-01-21T03:42:49.372Z,24.03
2019-01-21T03:45:52.692Z,19.03
2019-01-21T03:48:24.184Z,23.47
2019-01-21T03:51:10.592Z,20.93
2019-01-21T03:57:26.267Z,20.13
2019-01-21T04:00:15.803Z,20.93
2019-01-21T04:03:05.016Z,20.23
2019-01-21T04:05:36.514Z,19.17
2019-01-21T04:08:31.515Z,21.77
2019-01-21T04:11:11.730Z,19.70
2019-01-21T04:13:49.066Z,21.97
2019-01-21T04:16:24.951Z,19.23
2019-01-21T04:19:11.294Z,20.43
2019-01-21T04:21:48.545Z,19.37
2019-01-21T04:24:39.309Z,20.90
2019-01-21T04:27:25.460Z,21.53
2019-01-21T04:30:00.149Z,23.67
2019-01-21T04:32:50.932Z,23.30
2019-01-21T04:35:28.348Z,23.03
2019-01-21T04:38:19.316Z,20.87
2019-01-21T04:41:23.945Z,24.13
2019-01-21T04:43:57.824Z,21.73
2019-01-21T04:46:41.337Z,20.97
2019-01-21T04:49:32.649Z,25.33
2019-01-21T04:52:10.146Z,20.40
2019-01-21T04:54:50.261Z,20.00
2019-01-21T04:57:36.561Z,20.40
2019-01-21T05:00:42.269Z,20.97
2019-01-21T05:03:25.723Z,21.47
2019-01-21T05:06:03.118Z,20.77
2019-01-21T05:08:37.165Z,19.80
2019-01-21T05:11:26.874Z,19.70
2019-01-21T05:14:14.965Z,20.77
2019-01-21T05:16:52.225Z,21.60
2019-01-21T05:19:40.216Z,20.57
2019-01-21T05:22:14.632Z,20.90
2019-01-21T05:25:00.770Z,22.20
2019-01-21T05:27:34.917Z,20.73
2019-01-21T05:30:05.048Z,22.70
2019-01-21T05:32:48.350Z,22.43
2019-01-21T05:35:40.447Z,19.33
2019-01-21T05:38:46.200Z,18.10
2019-01-21T05:41:18.745Z,21.43
2019-01-21T05:44:02.372Z,19.57
2019-01-21T05:46:51.879Z,21.33
2019-01-21T05:49:48.977Z,22.20
2019-01-21T05:52:43.105Z,21.00
2019-01-21T05:55:42.646Z,21.97
2019-01-21T05:58:19.304Z,21.10
2019-01-21T06:00:53.521Z,22.47
2019-01-21T06:03:39.536Z,23.00
2019-01-21T06:06:28.863Z,25.23
2019-01-21T06:09:09.433Z,20.23
2019-01-21T06:11:44.077Z,24.70
2019-01-21T06:14:22.664Z,23.03
2019-01-21T06:16:54.156Z,22.97
2019-01-21T06:19:46.060Z,22.23
2019-01-21T06:22:26.336Z,25.63
2019-01-21T06:24:57.820Z,23.30
2019-01-21T06:27:32.304Z,21.77
2019-01-21T06:30:21.758Z,23.57
2019-01-21T06:33:05.553Z,25.50
2019-01-21T06:35:39.977Z,23.77
2019-01-21T06:38:26.552Z,23.17
2019-01-21T06:41:18.993Z,21.47
2019-01-21T06:44:05.456Z,24.97
2019-01-21T06:46:54.696Z,21.03
2019-01-21T06:49:40.905Z,21.03
2019-01-21T06:52:21.187Z,22.77
2019-01-21T06:55:07.516Z,22.07
2019-01-21T06:57:47.931Z,23.70
2019-01-21T07:00:28.384Z,27.60
2019-01-21T07:03:08.701Z,22.07
2019-01-21T07:06:01.574Z,23.53
2019-01-21T07:08:31.189Z,23.97
2019-01-21T07:11:11.604Z,23.47
2019-01-21T07:13:47.020Z,22.40
2019-01-21T07:16:27.527Z,23.70
2019-01-21T07:19:15.553Z,25.17
2019-01-21T07:22:01.557Z,27.57
2019-01-21T07:24:55.507Z,24.03
2019-01-21T07:27:43.661Z,23.77
2019-01-21T07:30:24.071Z,24.00
2019-01-21T07:33:12.014Z,24.77
2019-01-21T07:36:02.392Z,23.60
2019-01-21T07:38:32.012Z,24.33
2019-01-21T07:41:21.490Z,23.80
2019-01-21T07:44:01.708Z,28.33
2019-01-21T07:46:45.144Z,28.60
2019-01-21T07:49:22.320Z,27.47
2019-01-21T07:51:57.869Z,27.23
2019-01-21T07:54:27.501Z,23.07
2019-01-21T07:57:05.962Z,25.87
2019-01-21T07:59:38.591Z,25.63
2019-01-21T08:02:08.204Z,24.20
2019-01-21T08:04:37.837Z,24.37
2019-01-21T08:07:14.921Z,26.73
2019-01-21T08:09:49.195Z,24.27
2019-01-21T08:12:29.841Z,22.37
2019-01-21T08:15:13.597Z,22.87
2019-01-21T08:17:51.161Z,23.70
2019-01-21T08:20:25.683Z,22.53
2019-01-21T08:23:16.802Z,23.90
2019-01-21T08:26:00.060Z,23.40
2019-01-21T08:28:32.795Z,23.60
2019-01-21T08:31:22.136Z,22.97
2019-01-21T08:34:08.232Z,23.43
2019-01-21T08:36:40.500Z,22.53
2019-01-21T08:39:10.129Z,20.80
2019-01-21T08:41:44.888Z,23.40
2019-01-21T08:44:29.860Z,21.83
2019-01-21T08:47:25.173Z,23.00
2019-01-21T08:50:02.294Z,21.83
2019-01-21T08:52:51.792Z,23.23
2019-01-21T08:55:35.318Z,22.80
2019-01-21T08:58:23.470Z,21.00
2019-01-21T09:00:54.955Z,21.10
2019-01-21T09:03:49.119Z,22.17
2019-01-21T09:06:37.999Z,23.60
2019-01-21T09:09:18.200Z,20.43
2019-01-21T09:12:04.604Z,22.93
2019-01-21T09:14:48.132Z,24.83
2019-01-21T09:17:31.110Z,23.50
2019-01-21T09:20:17.160Z,22.57
2019-01-21T09:22:48.636Z,23.37
2019-01-21T09:25:42.756Z,21.53
2019-01-21T09:28:22.899Z,20.50
2019-01-21T09:31:03.088Z,22.63
2019-01-21T09:33:51.317Z,23.03
2019-01-21T09:36:42.380Z,22.40
2019-01-21T09:39:16.656Z,20.93
2019-01-21T09:41:53.996Z,23.10
2019-01-21T09:44:25.510Z,22.13
2019-01-21T09:46:52.839Z,21.40
2019-01-21T09:49:20.464Z,22.03
2019-01-21T09:51:50.084Z,20.80
2019-01-21T09:54:20.241Z,19.93
2019-01-21T09:56:48.688Z,21.20
2019-01-21T09:59:17.088Z,21.40
2019-01-21T10:01:45.776Z,22.37
2019-01-21T10:04:17.262Z,21.13
2019-01-21T10:06:48.752Z,21.97
2019-01-21T10:09:36.760Z,22.83
2019-01-21T10:12:27.753Z,22.67
2019-01-21T10:15:14.052Z,22.17
2019-01-21T10:17:48.345Z,20.47
2019-01-21T10:20:49.908Z,22.27
2019-01-21T10:23:36.291Z,21.93
2019-01-21T10:26:40.812Z,19.10
2019-01-21T10:29:17.896Z,21.00
2019-01-21T10:31:59.468Z,20.90
2019-01-21T10:34:31.940Z,22.13
2019-01-21T10:37:06.067Z,20.63
2019-01-21T10:39:46.536Z,18.30
2019-01-21T10:42:32.716Z,20.50
2019-01-21T10:45:23.182Z,22.20
2019-01-21T10:48:03.697Z,21.77
2019-01-21T10:50:50.192Z,21.90
2019-01-21T10:53:27.276Z,20.13
2019-01-21T10:56:01.679Z,23.07
2019-01-21T10:58:33.173Z,19.53
2019-01-21T11:01:18.204Z,20.83
2019-01-21T11:03:49.697Z,21.60
2019-01-21T11:06:27.012Z,20.30
2019-01-21T11:09:04.232Z,21.70
2019-01-21T11:11:44.565Z,22.43
2019-01-21T11:14:52.463Z,22.30
2019-01-21T11:17:51.148Z,19.83
2019-01-21T11:20:53.024Z,21.23
2019-01-21T11:23:30.126Z,19.67
2019-01-21T11:26:12.955Z,19.73
2019-01-21T11:28:58.623Z,20.57
2019-01-21T11:31:32.904Z,20.93
2019-01-21T11:34:06.939Z,21.97
2019-01-21T11:36:44.353Z,19.47
2019-01-21T11:39:33.900Z,21.43
2019-01-21T11:42:14.296Z,19.03
2019-01-21T11:44:54.571Z,23.33
2019-01-21T11:47:28.776Z,20.67
2019-01-21T11:50:19.699Z,21.23
2019-01-21T11:52:59.933Z,20.23
2019-01-21T11:55:34.292Z,21.27
2019-01-21T11:58:11.461Z,20.93
2019-01-21T12:00:45.663Z,19.97
2019-01-21T12:03:25.413Z,22.57
2019-01-21T12:05:56.976Z,20.47
2019-01-21T12:08:35.556Z,20.43
2019-01-21T12:11:12.854Z,21.07
2019-01-21T12:13:47.465Z,21.73
2019-01-21T12:16:38.708Z,20.30
2019-01-21T12:19:22.416Z,20.90
2019-01-21T12:22:13.532Z,21.73
2019-01-21T12:24:42.876Z,21.73
2019-01-21T12:27:20.372Z,21.63
2019-01-21T12:29:49.979Z,20.57
2019-01-21T12:32:21.467Z,21.23
2019-01-21T12:34:52.948Z,21.10
2019-01-21T12:37:30.488Z,21.07
2019-01-21T12:40:13.820Z,21.43
2019-01-21T12:42:53.892Z,20.37
2019-01-21T12:45:31.292Z,18.30
2019-01-21T12:48:11.798Z,20.27
2019-01-21T12:50:43.279Z,20.90
2019-01-21T12:53:31.291Z,21.07
2019-01-21T12:56:02.769Z,20.73
2019-01-21T12:59:07.149Z,21.37
2019-01-21T13:01:41.576Z,20.33
2019-01-21T13:04:18.996Z,20.50
2019-01-21T13:06:53.164Z,21.03
2019-01-21T13:09:36.120Z,19.13
2019-01-21T13:12:28.453Z,18.47
2019-01-21T13:14:58.076Z,19.00
2019-01-21T13:17:29.551Z,19.83
2019-01-21T13:20:03.892Z,19.30
2019-01-21T13:22:35.452Z,20.30
2019-01-21T13:25:29.448Z,18.80
2019-01-21T13:28:15.472Z,20.53
2019-01-21T13:30:46.964Z,19.30
2019-01-21T13:33:24.373Z,20.03
2019-01-21T13:36:01.550Z,19.67
2019-01-21T13:38:31.162Z,19.03
2019-01-21T13:41:02.649Z,19.27
2019-01-21T13:43:39.554Z,19.57
2019-01-21T13:46:20.005Z,19.30
2019-01-21T13:49:00.103Z,19.57
2019-01-21T13:51:37.109Z,20.20
2019-01-21T13:54:25.171Z,18.80
2019-01-21T13:56:59.296Z,20.40
2019-01-21T13:59:41.026Z,19.13
2019-01-21T14:02:24.204Z,18.67
2019-01-21T14:05:13.656Z,19.07
2019-01-21T14:08:02.964Z,19.97
2019-01-21T14:10:50.860Z,18.67
2019-01-21T14:13:28.096Z,18.20
2019-01-21T14:16:23.723Z,19.80
2019-01-21T14:19:04.080Z,19.97
2019-01-21T14:21:47.764Z,20.30
2019-01-21T14:24:19.248Z,19.73
2019-01-21T14:27:13.340Z,19.63
2019-01-21T14:29:44.856Z,20.10
2019-01-21T14:32:23.636Z,18.30
2019-01-21T14:34:57.660Z,18.20
2019-01-21T14:37:55.072Z,18.53
2019-01-21T14:40:29.459Z,20.17
2019-01-21T14:43:08.508Z,18.47
2019-01-21T14:46:13.651Z,19.27
2019-01-21T14:49:04.826Z,17.93
2019-01-21T14:51:59.224Z,18.07
2019-01-21T14:54:35.860Z,18.67
2019-01-21T14:57:13.332Z,16.87
2019-01-21T14:59:56.348Z,18.43
2019-01-21T15:02:27.845Z,17.43
2019-01-21T15:05:28.199Z,16.67
2019-01-21T15:07:59.745Z,16.53
2019-01-21T15:10:47.787Z,16.87
2019-01-21T15:13:19.308Z,17.83
2019-01-21T15:15:53.292Z,18.73
2019-01-21T15:18:46.003Z,17.97
2019-01-21T15:21:20.191Z,17.40
2019-01-21T15:24:06.709Z,16.73
2019-01-21T15:26:49.704Z,17.33
2019-01-21T15:29:45.028Z,17.70
2019-01-21T15:32:16.668Z,16.60
2019-01-21T15:34:46.496Z,17.33
2019-01-21T15:37:26.541Z,17.97
2019-01-21T15:40:21.866Z,16.73
2019-01-21T15:43:11.150Z,18.33
2019-01-21T15:45:52.060Z,16.57
2019-01-21T15:48:24.468Z,16.43
2019-01-21T15:51:10.828Z,16.33
2019-01-21T15:53:54.343Z,16.67
2019-01-21T15:56:29.832Z,16.77
2019-01-21T15:59:16.159Z,16.97
2019-01-21T16:01:53.565Z,16.93
2019-01-21T16:04:27.632Z,14.50
2019-01-21T16:07:14.195Z,17.10
2019-01-21T16:09:51.733Z,16.30
2019-01-21T16:12:25.879Z,16.30
2019-01-21T16:15:02.952Z,14.87
2019-01-21T16:17:46.207Z,16.27
2019-01-21T16:20:17.736Z,15.17
2019-01-21T16:23:25.336Z,16.77
2019-01-21T16:25:53.920Z,15.80
2019-01-21T16:28:28.429Z,15.03
2019-01-21T16:31:07.152Z,15.93
2019-01-21T16:34:10.906Z,17.30
2019-01-21T16:37:00.452Z,15.23
2019-01-21T16:39:54.457Z,16.17
2019-01-21T16:42:21.837Z,16.23
2019-01-21T16:44:50.240Z,15.30
2019-01-21T16:47:18.656Z,15.63
2019-01-21T16:49:47.061Z,14.37
2019-01-21T16:52:15.476Z,15.67
2019-01-21T16:54:43.877Z,13.50
2019-01-21T16:57:12.295Z,16.37
2019-01-21T16:59:40.708Z,14.03
2019-01-21T17:02:09.444Z,15.83
2019-01-21T17:04:37.856Z,16.00
2019-01-21T17:07:06.422Z,15.53
2019-01-21T17:09:34.827Z,14.80
2019-01-21T17:12:03.236Z,15.73
2019-01-21T17:14:31.660Z,15.57
2019-01-21T17:17:00.055Z,15.37
2019-01-21T17:19:28.518Z,16.00
2019-01-21T17:21:56.618Z,15.43
2019-01-21T17:24:25.030Z,14.63
2019-01-21T17:26:53.423Z,15.03
2019-01-21T17:29:21.856Z,14.40
2019-01-21T17:31:50.255Z,16.03
2019-01-21T17:34:18.676Z,14.67
2019-01-21T17:36:47.076Z,15.47
2019-01-21T17:39:15.487Z,15.30
2019-01-21T17:41:43.893Z,15.93
2019-01-21T17:44:11.972Z,17.27
2019-01-21T17:46:40.059Z,15.30
2019-01-21T17:49:08.480Z,16.10
2019-01-21T17:51:36.876Z,14.53
2019-01-21T17:54:05.028Z,16.10
2019-01-21T17:56:33.439Z,15.23
2019-01-21T17:59:01.501Z,13.93
2019-01-21T18:01:29.933Z,15.03
2019-01-21T18:03:58.337Z,16.03
2019-01-21T18:06:26.748Z,14.63
2019-01-21T18:08:55.150Z,14.93
2019-01-21T18:11:23.576Z,15.97
2019-01-21T18:13:51.980Z,15.40
2019-01-21T18:16:20.502Z,15.83
2019-01-21T18:18:48.899Z,16.33
2019-01-21T18:21:17.308Z,15.27
2019-01-21T18:23:45.419Z,16.70
2019-01-21T18:26:13.885Z,16.63
2019-01-21T18:28:42.280Z,17.70
2019-01-21T18:31:10.692Z,15.87
2019-01-21T18:33:39.104Z,15.63
2019-01-21T18:36:07.684Z,16.10
2019-01-21T18:38:36.083Z,16.90
2019-01-21T18:41:04.501Z,17.17
2019-01-21T18:43:32.912Z,16.37
2019-01-21T18:46:01.396Z,16.50
2019-01-21T18:48:29.797Z,17.23
2019-01-21T18:50:57.884Z,16.53
2019-01-21T18:53:26.284Z,17.20
2019-01-21T18:55:54.414Z,14.90
2019-01-21T18:58:22.860Z,16.27
2019-01-21T19:00:50.953Z,16.70
2019-01-21T19:03:19.517Z,17.07
2019-01-21T19:05:47.588Z,15.77
2019-01-21T19:08:16.001Z,15.37
2019-01-21T19:10:44.412Z,15.00
2019-01-21T19:13:12.829Z,16.67
2019-01-21T19:15:41.223Z,14.53
2019-01-21T19:18:09.728Z,17.77
2019-01-21T19:20:38.132Z,17.23
2019-01-21T19:23:06.388Z,16.97
2019-01-21T19:25:34.792Z,17.03
2019-01-21T19:28:03.206Z,16.97
2019-01-21T19:30:31.612Z,17.03
2019-01-21T19:33:00.128Z,14.57
2019-01-21T19:35:31.371Z,16.30
2019-01-21T19:37:59.779Z,16.37
2019-01-21T19:40:28.416Z,15.93
2019-01-21T19:42:56.896Z,17.70
2019-01-21T19:45:25.304Z,15.17
2019-01-21T19:47:53.768Z,16.23
2019-01-21T19:50:23.712Z,17.20
2019-01-21T19:52:52.236Z,16.27
2019-01-21T19:55:21.868Z,16.37
2019-01-21T19:57:50.272Z,14.67
2019-01-21T20:00:19.591Z,16.27
2019-01-21T20:02:48.007Z,15.97
2019-01-21T20:05:16.083Z,16.33
2019-01-21T20:07:44.487Z,17.50
2019-01-21T20:10:16.212Z,15.90
2019-01-21T20:12:44.288Z,15.00
2019-01-21T20:15:15.255Z,16.53
2019-01-21T20:17:43.845Z,16.03
2019-01-21T20:20:21.316Z,15.67
2019-01-21T20:22:49.724Z,16.53
2019-01-21T20:25:18.048Z,17.03
2019-01-21T20:27:46.314Z,16.13
2019-01-21T20:30:15.928Z,16.93
2019-01-21T20:32:44.333Z,16.43
2019-01-21T20:35:14.284Z,16.80
2019-01-21T20:37:42.686Z,16.47
2019-01-21T20:40:22.325Z,16.77
2019-01-21T20:42:50.731Z,15.13
2019-01-21T20:45:19.291Z,15.87
2019-01-21T20:47:47.362Z,14.90
2019-01-21T20:50:35.280Z,15.70
2019-01-21T20:53:03.994Z,17.17
2019-01-21T20:55:32.488Z,17.10
2019-01-21T20:58:00.904Z,15.43
2019-01-21T21:00:30.855Z,17.20
2019-01-21T21:02:59.589Z,14.93
2019-01-21T21:05:28.150Z,15.20
2019-01-21T21:07:56.227Z,16.77
2019-01-21T21:10:24.308Z,16.63
2019-01-21T21:12:52.716Z,18.27
2019-01-21T21:15:28.469Z,17.97
2019-01-21T21:17:56.541Z,18.27
2019-01-21T21:20:24.955Z,18.27
2019-01-21T21:22:53.348Z,16.97
2019-01-21T21:25:21.600Z,18.03
2019-01-21T21:27:50.008Z,18.13
2019-01-21T21:30:21.328Z,17.00
2019-01-21T21:32:49.732Z,15.70
2019-01-21T21:35:18.155Z,17.83
2019-01-21T21:37:46.563Z,17.53
2019-01-21T21:40:15.792Z,18.00
2019-01-21T21:42:44.747Z,16.77
2019-01-21T21:45:15.488Z,17.63
2019-01-21T21:47:43.992Z,18.40
2019-01-21T21:50:23.498Z,18.00
2019-01-21T21:52:51.902Z,17.87
2019-01-21T21:55:19.972Z,16.97
2019-01-21T21:57:48.389Z,18.17
2019-01-21T22:00:19.437Z,17.30
2019-01-21T22:02:47.849Z,18.33
2019-01-21T22:05:16.090Z,16.33
2019-01-21T22:07:44.502Z,19.10
2019-01-21T22:10:19.774Z,20.70
2019-01-21T22:12:48.272Z,18.37
2019-01-21T22:15:17.623Z,17.97
2019-01-21T22:17:46.201Z,17.73
2019-01-21T22:20:17.145Z,16.57
2019-01-21T22:22:45.557Z,17.20
2019-01-21T22:25:13.969Z,17.13
2019-01-21T22:27:42.377Z,17.40
2019-01-21T22:30:12.176Z,18.03
2019-01-21T22:32:40.593Z,20.60
2019-01-21T22:35:09.435Z,18.23
2019-01-21T22:37:37.847Z,19.83
2019-01-21T22:40:10.604Z,19.60
2019-01-21T22:42:39.023Z,18.83
2019-01-21T22:45:09.367Z,18.80
2019-01-21T22:47:37.856Z,20.30
2019-01-21T22:50:07.696Z,17.53
2019-01-21T22:52:41.847Z,19.43
2019-01-21T22:55:09.276Z,19.73
2019-01-21T22:57:37.704Z,17.80
2019-01-21T23:00:20.739Z,18.57
2019-01-21T23:02:49.152Z,19.37
2019-01-21T23:05:17.559Z,18.80
2019-01-21T23:07:45.976Z,19.80
2019-01-21T23:10:14.477Z,20.13
2019-01-21T23:12:42.883Z,18.57
2019-01-21T23:15:12.104Z,18.47
2019-01-21T23:17:40.524Z,19.40
2019-01-21T23:20:10.665Z,17.30
2019-01-21T23:22:39.136Z,18.50
2019-01-21T23:25:07.977Z,20.80
2019-01-21T23:27:36.409Z,18.93
2019-01-21T23:30:10.688Z,19.47
2019-01-21T23:32:39.232Z,19.97
2019-01-21T23:35:07.817Z,19.10
2019-01-21T23:37:36.223Z,19.07
2019-01-21T23:40:07.745Z,18.60
2019-01-21T23:42:36.215Z,20.40
2019-01-21T23:45:07.568Z,21.60
2019-01-21T23:47:35.976Z,17.93
2019-01-21T23:50:15.798Z,20.37
2019-01-21T23:52:44.199Z,21.77
2019-01-21T23:55:13.548Z,19.57
2019-01-21T23:57:41.620Z,18.83
